Time;durP1;ratioP1;P1;durP2;ratioP2;P2;SDS_P1;SDS_P2;PMS_P1;PMS_P2;Temp;Humidity;BMP_temperature;BMP_pressure;BME280_temperature;BME280_humidity;BME280_pressure;Samples;Min_cycle;Max_cycle;Signal;HPM_P1;HPM_P2
2021/12/28 00:01:50;;;;;;;17.00;13.33;;;8.30;89.80;;;;;;4970322;28;20534;-46
2021/12/28 00:04:17;;;;;;;16.83;13.70;;;8.30;89.80;;;;;;4955960;28;20465;-46
2021/12/28 00:06:44;;;;;;;18.13;13.40;;;8.30;89.80;;;;;;4955047;28;20465;-45
2021/12/28 00:09:10;;;;;;;20.23;13.60;;;8.30;89.80;;;;;;4950791;28;20951;-45
2021/12/28 00:11:37;;;;;;;21.20;13.40;;;8.30;89.80;;;;;;4955974;28;20493;-45
2021/12/28 00:14:06;;;;;;;16.20;12.90;;;8.30;89.80;;;;;;4953983;28;20482;-44
2021/12/28 00:19:26;;;;;;;15.37;11.40;;;8.30;89.80;;;;;;4940957;28;20542;-45
2021/12/28 00:21:53;;;;;;;17.30;11.77;;;8.40;89.80;;;;;;4954401;28;20927;-45
2021/12/28 00:24:20;;;;;;;16.50;12.70;;;8.40;89.80;;;;;;4951112;28;20506;-45
2021/12/28 00:26:47;;;;;;;16.17;12.50;;;8.40;89.80;;;;;;4950632;28;20554;-45
2021/12/28 00:29:14;;;;;;;15.40;12.17;;;8.40;89.80;;;;;;4957965;28;20471;-44
2021/12/28 00:31:41;;;;;;;16.80;11.30;;;8.40;89.80;;;;;;4953466;28;20474;-45
2021/12/28 00:34:09;;;;;;;21.00;12.40;;;8.40;89.80;;;;;;4951884;28;20498;-47
2021/12/28 00:36:35;;;;;;;19.73;14.80;;;8.40;89.80;;;;;;4951081;28;20482;-46
2021/12/28 00:39:03;;;;;;;17.97;12.50;;;8.40;89.80;;;;;;4954577;28;20459;-46
2021/12/28 00:41:31;;;;;;;15.47;11.33;;;8.40;89.80;;;;;;4953319;28;20470;-46
2021/12/28 00:43:57;;;;;;;19.20;11.97;;;8.40;89.80;;;;;;4952347;28;20455;-44
2021/12/28 00:46:24;;;;;;;14.20;10.40;;;8.40;89.80;;;;;;4958825;28;21004;-44
2021/12/28 00:48:51;;;;;;;15.83;11.13;;;8.40;89.80;;;;;;4955567;28;20542;-44
2021/12/28 00:51:17;;;;;;;19.13;12.13;;;8.40;89.80;;;;;;4952458;28;20463;-44
2021/12/28 00:53:44;;;;;;;20.63;12.13;;;8.50;89.80;;;;;;4956892;28;20486;-44
2021/12/28 00:56:11;;;;;;;16.20;11.23;;;8.40;89.80;;;;;;4955586;28;20843;-44
2021/12/28 00:58:38;;;;;;;16.93;11.87;;;8.40;89.80;;;;;;4934953;28;20460;-44
2021/12/28 01:01:08;;;;;;;15.03;10.70;;;8.50;89.80;;;;;;4955185;28;20458;-44
2021/12/28 01:03:37;;;;;;;22.00;11.43;;;8.50;89.80;;;;;;4954535;28;20451;-45
2021/12/28 01:06:06;;;;;;;16.10;9.40;;;8.40;89.80;;;;;;4951004;28;20561;-45
2021/12/28 01:08:33;;;;;;;13.67;9.40;;;8.50;89.80;;;;;;4954225;28;20473;-45
2021/12/28 01:11:00;;;;;;;11.70;9.13;;;8.50;89.80;;;;;;4952248;28;20557;-47
2021/12/28 01:13:27;;;;;;;20.77;9.53;;;8.50;89.80;;;;;;4954142;28;20862;-47
2021/12/28 01:15:54;;;;;;;15.17;9.17;;;8.50;89.80;;;;;;4951944;28;20467;-45
2021/12/28 01:18:22;;;;;;;14.93;8.23;;;8.50;89.80;;;;;;4952070;28;20868;-46
2021/12/28 01:20:49;;;;;;;14.27;8.83;;;8.50;89.80;;;;;;4950953;28;20447;-45
2021/12/28 01:23:16;;;;;;;14.90;8.30;;;8.60;89.80;;;;;;4957256;28;21015;-47
2021/12/28 01:25:44;;;;;;;17.30;8.67;;;8.60;89.80;;;;;;4956351;28;20480;-46
2021/12/28 01:28:11;;;;;;;10.17;7.90;;;8.60;89.80;;;;;;4969173;28;20971;-46
2021/12/28 01:30:40;;;;;;;13.67;7.00;;;8.60;89.80;;;;;;4940907;28;20463;-45
2021/12/28 01:33:08;;;;;;;10.43;6.70;;;8.60;89.80;;;;;;4950919;28;20524;-45
2021/12/28 01:35:35;;;;;;;9.60;6.50;;;8.70;89.80;;;;;;4953639;28;20456;-45
2021/12/28 01:38:02;;;;;;;9.87;6.37;;;8.70;89.80;;;;;;4954997;28;20461;-45
2021/12/28 01:40:34;;;;;;;8.13;6.23;;;8.70;89.80;;;;;;4954764;28;20459;-45
2021/12/28 01:43:15;;;;;;;13.07;7.00;;;8.70;89.80;;;;;;4954029;28;20459;-45
2021/12/28 01:45:51;;;;;;;11.97;5.70;;;8.70;89.80;;;;;;4953661;28;20969;-45
2021/12/28 01:48:34;;;;;;;7.53;5.07;;;8.80;89.80;;;;;;4954049;28;20979;-47
2021/12/28 01:51:08;;;;;;;12.20;6.00;;;8.80;89.80;;;;;;4960544;28;20462;-44
2021/12/28 01:53:36;;;;;;;16.73;6.00;;;8.80;89.80;;;;;;4967422;28;20498;-45
2021/12/28 01:56:06;;;;;;;19.80;7.20;;;8.80;89.80;;;;;;4968613;28;20447;-44
2021/12/28 01:58:34;;;;;;;18.03;5.60;;;8.90;89.80;;;;;;4970918;28;20446;-45
2021/12/28 02:01:01;;;;;;;15.37;5.40;;;8.90;89.80;;;;;;4954373;28;20981;-54
2021/12/28 02:03:30;;;;;;;12.60;4.97;;;8.90;89.80;;;;;;4954027;28;20470;-45
2021/12/28 02:05:58;;;;;;;12.57;5.00;;;8.90;89.80;;;;;;4961819;28;20467;-45
2021/12/28 02:08:25;;;;;;;12.20;5.00;;;8.90;89.80;;;;;;4954469;28;20463;-44
2021/12/28 02:10:55;;;;;;;11.67;5.50;;;8.90;89.80;;;;;;4952415;28;20462;-45
2021/12/28 02:13:23;;;;;;;9.87;4.70;;;9.00;89.80;;;;;;4949024;28;20506;-44
2021/12/28 02:15:50;;;;;;;15.63;5.60;;;9.00;89.80;;;;;;4952291;28;20470;-45
2021/12/28 02:18:19;;;;;;;10.77;5.20;;;9.10;89.80;;;;;;4953740;28;20459;-45
2021/12/28 02:20:46;;;;;;;10.30;4.57;;;9.10;89.80;;;;;;4953561;28;20945;-45
2021/12/28 02:23:14;;;;;;;11.17;5.73;;;9.00;89.80;;;;;;4948359;28;20498;-45
2021/12/28 02:25:41;;;;;;;9.93;6.07;;;9.10;89.80;;;;;;4955237;28;20466;-45
2021/12/28 02:28:11;;;;;;;9.47;5.30;;;9.10;89.80;;;;;;4958082;28;20940;-47
2021/12/28 02:30:40;;;;;;;10.33;4.90;;;9.10;89.80;;;;;;4967076;28;21155;-47
2021/12/28 02:33:07;;;;;;;9.90;6.17;;;9.10;89.80;;;;;;4965947;28;20481;-47
2021/12/28 02:35:34;;;;;;;8.87;5.70;;;9.10;89.80;;;;;;4962781;28;20976;-47
2021/12/28 02:38:03;;;;;;;9.63;5.57;;;9.10;89.80;;;;;;4963394;28;20835;-47
2021/12/28 02:40:32;;;;;;;12.30;6.27;;;9.10;89.80;;;;;;4965012;28;20456;-47
2021/12/28 02:43:03;;;;;;;17.53;7.13;;;9.10;89.80;;;;;;4947542;28;20550;-47
2021/12/28 02:45:39;;;;;;;12.43;5.50;;;9.10;89.80;;;;;;4949185;28;20474;-47
2021/12/28 02:48:07;;;;;;;10.53;6.50;;;9.10;89.80;;;;;;4953418;28;20504;-47
2021/12/28 02:50:41;;;;;;;10.03;5.47;;;9.10;89.80;;;;;;4964930;28;20547;-47
2021/12/28 02:53:09;;;;;;;12.23;6.20;;;9.10;89.80;;;;;;4951520;28;20492;-47
2021/12/28 02:55:39;;;;;;;14.97;6.47;;;9.10;89.80;;;;;;4961844;28;20834;-47
2021/12/28 02:58:29;;;;;;;10.33;4.90;;;9.10;89.80;;;;;;4964050;28;20463;-47
2021/12/28 03:01:09;;;;;;;10.03;5.40;;;9.10;89.80;;;;;;4946331;28;20465;-46
2021/12/28 03:03:37;;;;;;;12.27;5.60;;;9.00;89.80;;;;;;4964508;28;20481;-46
2021/12/28 03:06:08;;;;;;;14.30;5.80;;;9.00;89.80;;;;;;4947373;28;20490;-46
2021/12/28 03:08:38;;;;;;;8.33;4.97;;;9.00;89.80;;;;;;4949878;28;20470;-46
2021/12/28 03:11:06;;;;;;;10.77;5.30;;;9.00;89.80;;;;;;4947107;28;20474;-46
2021/12/28 03:13:42;;;;;;;7.73;4.60;;;9.00;89.80;;;;;;4964868;28;20487;-46
2021/12/28 03:16:09;;;;;;;8.97;4.83;;;9.00;89.80;;;;;;4949882;28;20470;-46
2021/12/28 03:18:37;;;;;;;9.77;5.80;;;9.00;89.80;;;;;;4946511;28;20498;-46
2021/12/28 03:21:05;;;;;;;7.90;4.50;;;9.00;89.80;;;;;;4950916;28;20577;-46
2021/12/28 03:23:33;;;;;;;7.50;5.00;;;9.00;89.80;;;;;;4949680;28;20494;-46
2021/12/28 03:26:00;;;;;;;11.50;5.07;;;9.00;89.80;;;;;;4947477;28;20820;-46
2021/12/28 03:28:32;;;;;;;17.00;5.33;;;9.00;89.80;;;;;;4949024;28;20471;-46
2021/12/28 03:31:04;;;;;;;11.30;5.40;;;9.00;89.80;;;;;;4964862;28;20469;-47
2021/12/28 03:33:33;;;;;;;10.00;5.33;;;9.00;89.80;;;;;;4947093;28;20558;-46
2021/12/28 03:36:00;;;;;;;14.23;7.43;;;9.00;89.80;;;;;;4952887;28;20472;-45
2021/12/28 03:38:27;;;;;;;12.73;5.80;;;9.00;89.80;;;;;;4958172;28;20490;-45
2021/12/28 03:40:54;;;;;;;9.67;5.40;;;9.00;89.80;;;;;;4965858;28;20939;-45
2021/12/28 03:43:24;;;;;;;11.40;5.47;;;9.00;89.80;;;;;;4951999;28;20474;-45
2021/12/28 03:45:52;;;;;;;10.00;4.77;;;9.00;89.80;;;;;;4967133;28;21139;-45
2021/12/28 03:48:19;;;;;;;12.00;5.10;;;9.10;89.80;;;;;;4953276;28;21031;-45
2021/12/28 03:50:46;;;;;;;9.90;5.37;;;9.00;89.80;;;;;;4967163;28;20455;-45
2021/12/28 03:53:13;;;;;;;7.10;5.63;;;9.00;89.80;;;;;;4950166;28;20583;-45
2021/12/28 03:55:40;;;;;;;7.30;4.27;;;9.10;89.80;;;;;;4958979;28;20944;-45
2021/12/28 03:58:07;;;;;;;11.40;5.50;;;9.10;89.80;;;;;;4953751;28;20459;-46
2021/12/28 04:00:37;;;;;;;7.87;4.50;;;9.10;89.80;;;;;;4951767;28;20469;-46
2021/12/28 04:03:06;;;;;;;10.37;5.50;;;9.20;89.80;;;;;;4952075;28;20470;-45
2021/12/28 04:05:33;;;;;;;15.20;6.97;;;9.10;89.80;;;;;;4954198;28;20495;-46
2021/12/28 04:08:00;;;;;;;7.50;4.20;;;9.10;89.80;;;;;;4952408;28;20955;-45
2021/12/28 04:10:31;;;;;;;8.13;3.87;;;9.10;89.80;;;;;;4951108;28;20477;-45
2021/12/28 04:12:59;;;;;;;9.43;4.57;;;9.10;89.80;;;;;;4952955;28;20469;-47
2021/12/28 04:15:26;;;;;;;10.30;4.50;;;9.10;89.80;;;;;;4968556;28;20492;-44
2021/12/28 04:17:53;;;;;;;5.97;3.97;;;9.10;89.80;;;;;;4949917;28;20467;-45
2021/12/28 04:20:21;;;;;;;9.83;4.87;;;9.00;89.80;;;;;;4946980;28;20475;-45
2021/12/28 04:22:48;;;;;;;13.07;4.80;;;9.00;89.80;;;;;;4952528;28;20478;-45
2021/12/28 04:25:17;;;;;;;13.17;5.43;;;9.00;89.80;;;;;;4952889;28;20477;-46
2021/12/28 04:27:44;;;;;;;11.07;3.80;;;9.00;89.80;;;;;;4962263;28;20471;-46
2021/12/28 04:30:13;;;;;;;7.93;3.63;;;9.00;89.80;;;;;;4945213;28;21308;-45
2021/12/28 04:32:40;;;;;;;11.30;4.13;;;9.00;89.80;;;;;;4951886;28;20459;-46
2021/12/28 04:35:07;;;;;;;15.43;4.00;;;9.00;89.80;;;;;;4950332;28;20493;-45
2021/12/28 04:37:35;;;;;;;5.53;2.90;;;9.00;89.80;;;;;;4935997;29;20459;-45
2021/12/28 04:40:05;;;;;;;12.03;4.77;;;9.00;89.80;;;;;;4951695;28;20566;-46
2021/12/28 04:42:32;;;;;;;7.80;3.67;;;9.00;89.80;;;;;;4966162;28;20463;-44
2021/12/28 04:44:59;;;;;;;10.83;3.50;;;9.00;89.80;;;;;;4952185;28;20582;-45
2021/12/28 04:47:26;;;;;;;12.20;4.77;;;9.00;89.80;;;;;;4963060;28;20469;-46
2021/12/28 04:49:53;;;;;;;8.83;3.53;;;9.00;89.80;;;;;;4954647;28;20474;-46
2021/12/28 04:52:20;;;;;;;7.60;3.07;;;9.00;89.80;;;;;;4948860;28;21003;-46
2021/12/28 04:54:47;;;;;;;9.47;4.27;;;9.00;89.80;;;;;;4949094;28;20495;-46
2021/12/28 04:57:14;;;;;;;9.63;3.73;;;9.00;89.80;;;;;;4951015;28;20462;-46
2021/12/28 04:59:41;;;;;;;7.60;3.13;;;9.00;89.80;;;;;;4950016;28;20475;-46
2021/12/28 05:02:08;;;;;;;11.40;2.93;;;9.00;89.80;;;;;;4954492;28;20462;-46
2021/12/28 05:04:35;;;;;;;7.33;3.60;;;9.00;89.80;;;;;;4964834;28;20532;-46
2021/12/28 05:07:02;;;;;;;17.27;4.00;;;9.00;89.80;;;;;;4950689;28;20463;-46
2021/12/28 05:09:29;;;;;;;7.83;2.63;;;9.00;89.80;;;;;;4949899;28;20466;-45
2021/12/28 05:11:56;;;;;;;10.20;3.60;;;9.00;89.80;;;;;;4965874;28;20475;-45
2021/12/28 05:14:23;;;;;;;10.40;4.10;;;9.00;89.80;;;;;;4948483;28;20518;-44
2021/12/28 05:16:50;;;;;;;6.13;2.70;;;8.90;89.80;;;;;;4958233;28;20455;-44
2021/12/28 05:19:17;;;;;;;5.20;2.80;;;8.90;89.80;;;;;;4951860;28;20493;-44
2021/12/28 05:21:44;;;;;;;7.80;3.50;;;8.90;89.80;;;;;;4954901;28;20585;-44
2021/12/28 05:24:12;;;;;;;4.30;2.47;;;8.90;89.80;;;;;;4948054;28;21049;-44
2021/12/28 05:26:39;;;;;;;5.53;2.70;;;8.80;89.80;;;;;;4949499;28;20477;-45
2021/12/28 05:29:06;;;;;;;7.43;2.90;;;8.80;89.80;;;;;;4952064;28;20820;-45
2021/12/28 05:31:33;;;;;;;9.93;2.87;;;8.80;89.80;;;;;;4948701;28;20872;-45
2021/12/28 05:34:00;;;;;;;9.87;3.00;;;8.80;89.80;;;;;;4955049;28;20522;-46
2021/12/28 05:36:26;;;;;;;5.03;3.03;;;8.80;89.80;;;;;;4950008;28;20916;-44
2021/12/28 05:38:54;;;;;;;6.20;2.70;;;8.80;89.80;;;;;;4947584;28;20482;-44
2021/12/28 05:41:21;;;;;;;7.37;3.40;;;8.70;89.80;;;;;;4956462;28;20467;-45
2021/12/28 05:43:48;;;;;;;10.40;2.23;;;8.70;89.80;;;;;;4954370;28;20498;-45
2021/12/28 05:46:15;;;;;;;9.80;2.80;;;8.70;89.80;;;;;;4942345;28;20478;-45
2021/12/28 05:48:43;;;;;;;7.83;2.70;;;8.70;89.80;;;;;;4946864;28;20466;-43
2021/12/28 05:51:09;;;;;;;6.53;2.90;;;8.70;89.80;;;;;;4959681;28;20470;-43
2021/12/28 05:53:36;;;;;;;10.50;2.83;;;8.70;89.80;;;;;;4950121;28;20467;-43
2021/12/28 05:56:03;;;;;;;6.37;2.90;;;8.70;89.80;;;;;;4943699;28;20585;-43
2021/12/28 05:58:30;;;;;;;5.77;2.30;;;8.70;89.80;;;;;;4950532;28;20467;-43
2021/12/28 06:00:57;;;;;;;9.07;2.20;;;8.70;89.80;;;;;;4950318;28;20469;-43
2021/12/28 06:03:24;;;;;;;6.20;1.93;;;8.70;89.80;;;;;;4963207;28;20478;-43
2021/12/28 06:05:51;;;;;;;5.33;2.20;;;8.80;89.80;;;;;;4946589;28;20455;-45
2021/12/28 06:08:18;;;;;;;5.10;2.13;;;8.80;89.80;;;;;;4952535;28;20478;-45
2021/12/28 06:10:59;;;;;;;6.57;2.50;;;8.80;89.80;;;;;;4949134;28;20475;-44
2021/12/28 06:13:26;;;;;;;6.50;2.07;;;8.80;89.80;;;;;;4948228;28;21020;-44
2021/12/28 06:15:53;;;;;;;10.27;2.80;;;8.80;89.80;;;;;;4950312;28;20879;-44
2021/12/28 06:18:20;;;;;;;5.40;2.63;;;8.80;89.80;;;;;;4949098;28;20497;-44
2021/12/28 06:20:47;;;;;;;4.20;2.20;;;8.80;89.80;;;;;;4950855;28;20525;-45
2021/12/28 06:23:14;;;;;;;4.63;2.60;;;8.80;89.80;;;;;;4933860;28;20871;-44
2021/12/28 06:25:41;;;;;;;5.27;2.37;;;8.80;89.80;;;;;;4949763;28;20865;-44
2021/12/28 06:28:07;;;;;;;5.20;2.50;;;8.80;89.80;;;;;;4968046;28;20485;-44
2021/12/28 06:30:35;;;;;;;5.40;2.80;;;8.80;89.80;;;;;;4948474;28;20471;-44
2021/12/28 06:33:03;;;;;;;8.80;2.63;;;8.70;89.80;;;;;;4952046;28;20466;-44
2021/12/28 06:35:30;;;;;;;7.07;3.10;;;8.80;89.80;;;;;;4964210;28;20523;-43
2021/12/28 06:37:57;;;;;;;7.30;5.13;;;8.80;89.80;;;;;;4963242;28;20497;-43
2021/12/28 06:40:25;;;;;;;7.10;2.90;;;8.80;89.80;;;;;;4949628;28;20561;-43
2021/12/28 06:42:52;;;;;;;7.80;4.10;;;8.80;89.80;;;;;;4951719;28;20459;-43
2021/12/28 06:45:19;;;;;;;6.73;2.93;;;8.70;89.80;;;;;;4950376;28;20821;-43
2021/12/28 06:47:47;;;;;;;8.40;3.50;;;8.70;89.80;;;;;;4948208;28;21023;-43
2021/12/28 06:50:14;;;;;;;9.73;3.10;;;8.80;89.80;;;;;;4948516;28;20971;-43
2021/12/28 06:52:41;;;;;;;14.87;3.47;;;8.70;89.80;;;;;;4948331;28;20972;-43
2021/12/28 06:55:09;;;;;;;4.63;2.60;;;8.80;89.80;;;;;;4947344;28;21016;-43
2021/12/28 06:57:36;;;;;;;6.53;2.50;;;8.70;89.80;;;;;;4949322;28;20670;-44
2021/12/28 07:00:06;;;;;;;7.23;4.50;;;8.70;89.80;;;;;;4949053;28;20466;-44
2021/12/28 07:02:34;;;;;;;3.53;2.40;;;8.80;89.80;;;;;;4946403;28;20462;-43
2021/12/28 07:05:01;;;;;;;6.80;4.00;;;8.80;89.80;;;;;;4963953;28;20839;-43
2021/12/28 07:07:27;;;;;;;7.37;3.70;;;8.70;89.80;;;;;;4949984;28;20475;-43
2021/12/28 07:09:54;;;;;;;11.00;3.80;;;8.70;89.80;;;;;;4953636;28;20565;-44
2021/12/28 07:12:21;;;;;;;9.67;3.97;;;8.70;89.80;;;;;;4953383;28;20901;-43
2021/12/28 07:14:48;;;;;;;9.13;4.47;;;8.70;89.80;;;;;;4967535;28;21058;-43
2021/12/28 07:17:15;;;;;;;5.07;3.73;;;8.80;89.80;;;;;;4952439;28;20988;-43
2021/12/28 07:19:42;;;;;;;5.60;3.97;;;8.80;89.80;;;;;;4951406;28;20862;-44
2021/12/28 07:22:08;;;;;;;8.80;4.03;;;8.80;89.80;;;;;;4950076;28;20467;-44
2021/12/28 07:24:36;;;;;;;8.30;3.73;;;8.80;89.80;;;;;;4958405;28;21027;-43
2021/12/28 07:27:03;;;;;;;6.10;4.13;;;8.80;89.80;;;;;;4956653;28;20474;-43
2021/12/28 07:29:33;;;;;;;3.50;3.10;;;8.80;89.80;;;;;;4956054;28;20982;-43
2021/12/28 07:32:02;;;;;;;9.53;3.70;;;8.80;89.80;;;;;;4953649;28;20475;-43
2021/12/28 07:34:31;;;;;;;4.93;3.40;;;8.80;89.80;;;;;;4965188;28;20867;-43
2021/12/28 07:36:58;;;;;;;8.27;4.13;;;8.80;89.80;;;;;;4955811;28;20466;-43
2021/12/28 07:39:25;;;;;;;6.27;3.80;;;8.80;89.80;;;;;;4954345;28;20462;-43
2021/12/28 07:41:52;;;;;;;8.63;3.63;;;8.80;89.80;;;;;;4953464;28;20479;-43
2021/12/28 07:44:22;;;;;;;7.20;4.20;;;8.80;89.80;;;;;;4952815;28;20505;-43
2021/12/28 07:46:49;;;;;;;8.13;3.40;;;8.90;89.80;;;;;;4966468;28;20481;-44
2021/12/28 07:49:16;;;;;;;9.10;3.77;;;8.90;89.80;;;;;;4950595;28;20526;-43
2021/12/28 07:51:44;;;;;;;5.00;3.47;;;8.90;89.80;;;;;;4966356;28;20471;-43
2021/12/28 07:54:10;;;;;;;6.03;3.23;;;8.90;89.80;;;;;;4965439;28;20473;-43
2021/12/28 07:56:37;;;;;;;4.90;4.13;;;8.90;89.80;;;;;;4955559;28;20564;-43
2021/12/28 07:59:05;;;;;;;8.50;3.97;;;8.90;89.80;;;;;;4952439;28;20459;-43
2021/12/28 08:01:33;;;;;;;5.17;3.43;;;9.00;89.80;;;;;;4950519;28;20891;-43
2021/12/28 08:04:01;;;;;;;5.30;4.77;;;8.90;89.80;;;;;;4948028;28;20467;-43
2021/12/28 08:06:28;;;;;;;6.83;3.63;;;9.00;89.80;;;;;;4952303;28;20515;-43
2021/12/28 08:08:55;;;;;;;8.90;4.40;;;9.00;89.80;;;;;;4950879;28;20839;-43
2021/12/28 08:11:23;;;;;;;6.37;3.67;;;9.00;89.80;;;;;;4947191;28;20459;-43
2021/12/28 08:13:50;;;;;;;6.10;3.73;;;9.00;89.80;;;;;;4949411;28;20463;-43
2021/12/28 08:16:17;;;;;;;5.93;4.73;;;9.10;89.80;;;;;;4946180;28;20529;-43
2021/12/28 08:18:45;;;;;;;7.03;3.80;;;9.10;89.80;;;;;;4945957;28;20893;-43
2021/12/28 08:21:32;;;;;;;6.13;4.00;;;9.10;89.80;;;;;;4947986;28;20459;-43
2021/12/28 08:23:58;;;;;;;4.73;4.13;;;9.10;89.80;;;;;;4947613;28;20950;-43
2021/12/28 08:26:25;;;;;;;5.57;3.80;;;9.10;89.80;;;;;;4950122;28;20489;-43
2021/12/28 08:28:52;;;;;;;7.50;3.80;;;9.10;89.80;;;;;;4949798;28;20459;-43
2021/12/28 08:31:19;;;;;;;9.27;3.83;;;9.10;89.80;;;;;;4960341;28;20473;-43
2021/12/28 08:33:46;;;;;;;3.40;3.17;;;9.10;89.80;;;;;;4950308;28;20831;-43
2021/12/28 08:36:13;;;;;;;5.97;3.37;;;9.10;89.80;;;;;;4953001;28;20519;-43
2021/12/28 08:38:41;;;;;;;7.43;3.43;;;9.10;89.80;;;;;;4969434;28;20455;-43
2021/12/28 08:41:08;;;;;;;5.30;4.00;;;9.10;89.80;;;;;;4950400;28;20451;-43
2021/12/28 08:43:35;;;;;;;4.13;3.40;;;9.20;89.80;;;;;;4953915;28;20550;-43
2021/12/28 08:46:01;;;;;;;6.97;2.90;;;9.20;89.80;;;;;;4951724;28;20494;-43
2021/12/28 08:48:28;;;;;;;3.93;2.53;;;9.20;89.80;;;;;;4953526;28;20469;-43
2021/12/28 08:50:55;;;;;;;5.53;2.70;;;9.20;89.80;;;;;;4953137;28;20471;-43
2021/12/28 08:53:22;;;;;;;3.50;3.17;;;9.20;89.80;;;;;;4944925;28;20477;-43
2021/12/28 08:55:49;;;;;;;5.83;3.20;;;9.20;89.80;;;;;;4949238;28;20493;-43
2021/12/28 08:58:16;;;;;;;2.97;2.67;;;9.30;89.80;;;;;;4963708;28;20462;-43
2021/12/28 09:00:44;;;;;;;3.53;2.33;;;9.30;89.80;;;;;;4952744;28;20475;-43
2021/12/28 09:03:11;;;;;;;4.17;3.00;;;9.30;89.80;;;;;;4952666;28;20515;-43
2021/12/28 09:05:38;;;;;;;2.37;2.17;;;9.40;89.80;;;;;;4953183;28;20464;-43
2021/12/28 09:08:08;;;;;;;3.30;3.00;;;9.40;89.80;;;;;;4949589;28;20464;-43
2021/12/28 09:10:36;;;;;;;4.53;3.53;;;9.40;89.80;;;;;;4950083;28;21161;-43
2021/12/28 09:13:03;;;;;;;4.23;2.43;;;9.40;89.80;;;;;;4946637;28;20475;-43
2021/12/28 09:15:30;;;;;;;4.70;3.00;;;9.50;89.80;;;;;;4949693;28;20487;-43
2021/12/28 09:17:58;;;;;;;5.07;3.80;;;9.50;89.80;;;;;;4953213;28;20459;-43
2021/12/28 09:20:26;;;;;;;5.13;3.80;;;9.50;89.80;;;;;;4946960;28;20988;-43
2021/12/28 09:23:10;;;;;;;4.23;3.20;;;9.50;89.80;;;;;;4946722;28;20491;-43
2021/12/28 09:25:38;;;;;;;4.23;2.90;;;9.50;89.80;;;;;;4944015;28;20490;-43
2021/12/28 09:28:06;;;;;;;3.10;2.50;;;9.50;89.80;;;;;;4945112;28;20461;-43
2021/12/28 09:30:35;;;;;;;2.73;2.50;;;9.50;89.80;;;;;;4947090;28;20467;-43
2021/12/28 09:33:02;;;;;;;2.63;2.43;;;9.50;89.80;;;;;;4949824;28;20461;-43
2021/12/28 09:35:29;;;;;;;3.67;2.93;;;9.60;89.80;;;;;;4948505;28;20504;-43
2021/12/28 09:37:56;;;;;;;3.33;2.30;;;9.60;89.80;;;;;;4964432;28;20473;-43
2021/12/28 09:40:27;;;;;;;2.80;2.60;;;9.70;89.80;;;;;;4947947;28;20509;-43
2021/12/28 09:42:55;;;;;;;2.73;2.50;;;9.70;89.80;;;;;;4950098;28;20455;-43
2021/12/28 09:45:22;;;;;;;5.90;3.20;;;9.70;89.80;;;;;;4948069;28;21021;-43
2021/12/28 09:47:49;;;;;;;2.43;2.33;;;9.80;89.80;;;;;;4948528;28;20825;-43
2021/12/28 09:50:17;;;;;;;2.50;2.30;;;9.80;89.80;;;;;;4946044;28;20472;-43
2021/12/28 09:52:48;;;;;;;2.30;2.20;;;9.80;89.80;;;;;;4948757;28;20486;-43
2021/12/28 09:55:19;;;;;;;4.27;2.27;;;9.80;89.80;;;;;;4940749;28;20489;-43
2021/12/28 09:57:47;;;;;;;2.60;2.07;;;9.80;89.80;;;;;;4962251;28;20472;-44
2021/12/28 10:00:16;;;;;;;3.47;2.50;;;9.80;89.80;;;;;;4945646;28;20502;-43
2021/12/28 10:03:03;;;;;;;2.73;2.53;;;9.80;89.80;;;;;;4946941;28;20462;-43
2021/12/28 10:05:31;;;;;;;2.47;2.27;;;9.80;89.80;;;;;;4968441;28;21134;-43
2021/12/28 10:08:00;;;;;;;2.00;1.90;;;9.80;89.80;;;;;;4946966;28;20474;-43
2021/12/28 10:10:36;;;;;;;2.53;2.33;;;9.80;89.80;;;;;;4932751;28;20451;-43
2021/12/28 10:13:06;;;;;;;2.97;2.10;;;10.00;89.80;;;;;;4949527;28;20467;-43
2021/12/28 10:15:38;;;;;;;3.00;2.50;;;10.00;89.80;;;;;;4964601;28;20928;-43
2021/12/28 10:18:10;;;;;;;3.27;2.50;;;10.10;89.80;;;;;;4949507;28;20470;-43
2021/12/28 10:20:39;;;;;;;3.00;2.70;;;10.10;89.80;;;;;;4949213;28;20823;-43
2021/12/28 10:23:10;;;;;;;3.20;2.57;;;10.10;89.80;;;;;;4947793;28;20494;-45
2021/12/28 10:25:55;;;;;;;2.83;2.47;;;10.10;89.80;;;;;;4942704;28;20840;-45
2021/12/28 10:28:36;;;;;;;2.33;2.10;;;10.20;89.80;;;;;;4945439;28;20484;-45
2021/12/28 10:31:09;;;;;;;3.00;2.77;;;10.20;89.80;;;;;;4949394;28;20475;-45
2021/12/28 10:33:38;;;;;;;3.03;2.53;;;10.20;89.80;;;;;;4944048;28;21081;-45
2021/12/28 10:36:16;;;;;;;3.70;2.90;;;10.20;89.80;;;;;;4948470;28;20478;-45
2021/12/28 10:38:49;;;;;;;2.30;2.20;;;10.30;89.80;;;;;;4963218;28;20451;-45
2021/12/28 10:41:18;;;;;;;2.80;2.60;;;10.40;89.80;;;;;;4965695;28;20867;-44
2021/12/28 10:43:49;;;;;;;1.80;1.70;;;10.40;89.80;;;;;;4946503;28;20987;-45
2021/12/28 10:46:22;;;;;;;2.23;2.00;;;10.50;89.80;;;;;;4943017;28;21844;-45
2021/12/28 10:48:54;;;;;;;1.63;1.53;;;10.50;89.80;;;;;;4944345;28;20944;-45
2021/12/28 10:51:39;;;;;;;1.87;1.77;;;10.50;89.80;;;;;;4947595;28;20486;-44
2021/12/28 10:54:12;;;;;;;;;;;;;;;;;;;;;
2021/12/28 10:56:57;;;;;;;1.73;1.23;;;10.60;89.80;;;;;;4949390;28;20573;-45
2021/12/28 10:59:27;;;;;;;2.20;1.10;;;10.60;89.80;;;;;;4957289;28;20513;-46
2021/12/28 11:01:55;;;;;;;1.50;1.40;;;10.60;89.80;;;;;;4950411;28;20931;-46
2021/12/28 11:04:35;;;;;;;1.50;1.27;;;10.70;89.80;;;;;;4949635;28;20518;-47
2021/12/28 11:07:05;;;;;;;1.20;1.10;;;10.80;89.80;;;;;;4951109;28;20462;-47
2021/12/28 11:09:31;;;;;;;1.20;1.10;;;10.80;89.80;;;;;;4949097;28;20461;-47
2021/12/28 11:11:58;;;;;;;1.50;1.40;;;10.80;89.80;;;;;;4953150;28;20545;-47
2021/12/28 11:14:29;;;;;;;1.20;1.10;;;10.80;89.80;;;;;;4965219;28;20453;-47
2021/12/28 11:17:02;;;;;;;1.40;1.10;;;10.80;89.80;;;;;;4945112;28;20585;-47
2021/12/28 11:19:33;;;;;;;3.63;2.60;;;10.80;89.80;;;;;;4947823;28;20465;-47
2021/12/28 11:22:02;;;;;;;2.43;2.23;;;10.80;89.80;;;;;;4947120;28;20471;-47
2021/12/28 11:24:39;;;;;;;2.50;2.20;;;10.80;89.80;;;;;;4953612;28;20546;-47
2021/12/28 11:27:07;;;;;;;2.30;1.50;;;10.90;89.80;;;;;;4950166;28;20952;-47
2021/12/28 11:29:56;;;;;;;1.73;1.63;;;11.00;89.80;;;;;;4951415;28;20511;-47
2021/12/28 11:32:23;;;;;;;2.37;2.17;;;11.00;89.80;;;;;;4954396;28;20825;-47
2021/12/28 11:34:52;;;;;;;2.37;2.07;;;11.10;89.80;;;;;;4951512;28;20471;-47
2021/12/28 11:37:23;;;;;;;2.10;2.00;;;11.20;89.80;;;;;;4947552;28;20523;-47
2021/12/28 11:40:00;;;;;;;4.70;2.60;;;11.20;89.80;;;;;;4967638;28;20821;-47
2021/12/28 11:42:28;;;;;;;2.37;2.23;;;11.30;89.80;;;;;;4953913;28;20450;-47
2021/12/28 11:44:56;;;;;;;2.43;2.20;;;11.40;89.80;;;;;;4954400;28;20465;-47
2021/12/28 11:47:23;;;;;;;5.63;2.97;;;11.40;89.80;;;;;;4965993;28;20510;-47
2021/12/28 11:49:53;;;;;;;2.70;2.50;;;11.40;89.80;;;;;;4945057;28;20469;-47
2021/12/28 11:52:21;;;;;;;2.03;1.87;;;11.40;89.80;;;;;;4953236;28;20833;-47
2021/12/28 11:54:51;;;;;;;2.20;1.93;;;11.40;89.80;;;;;;4949165;28;21138;-47
2021/12/28 11:57:29;;;;;;;2.87;1.90;;;11.40;89.80;;;;;;4953723;28;20588;-47
2021/12/28 12:00:11;;;;;;;3.67;2.37;;;11.40;89.80;;;;;;4950604;28;20948;-47
2021/12/28 12:02:58;;;;;;;2.57;2.07;;;11.50;89.80;;;;;;4945012;28;20463;-47
2021/12/28 12:05:27;;;;;;;3.30;2.13;;;11.40;89.80;;;;;;4949831;28;20467;-47
2021/12/28 12:08:12;;;;;;;3.00;2.37;;;11.40;89.80;;;;;;4953024;28;20537;-47
2021/12/28 12:10:46;;;;;;;2.27;1.83;;;11.30;89.80;;;;;;4952794;28;20826;-47
2021/12/28 12:13:20;;;;;;;2.30;2.00;;;11.30;89.80;;;;;;4955144;28;20480;-47
2021/12/28 12:15:51;;;;;;;1.70;1.60;;;11.30;89.80;;;;;;4953099;28;20475;-47
2021/12/28 12:18:20;;;;;;;2.17;1.70;;;11.30;89.80;;;;;;4952044;28;20918;-47
2021/12/28 12:20:52;;;;;;;1.30;1.27;;;11.30;89.80;;;;;;4952868;28;20967;-47
2021/12/28 12:23:23;;;;;;;1.87;1.20;;;11.30;89.80;;;;;;4947665;28;20487;-47
2021/12/28 12:26:05;;;;;;;1.30;1.20;;;11.30;89.80;;;;;;4950048;28;20550;-47
2021/12/28 12:28:51;;;;;;;1.57;1.27;;;11.40;89.80;;;;;;4948976;28;20467;-47
2021/12/28 12:31:36;;;;;;;1.60;1.50;;;11.40;89.80;;;;;;4966296;28;20467;-47
2021/12/28 12:34:25;;;;;;;1.50;1.40;;;11.50;89.80;;;;;;4949558;28;20455;-47
2021/12/28 12:36:54;;;;;;;1.00;1.00;;;11.50;89.80;;;;;;4955638;28;20497;-47
2021/12/28 12:39:22;;;;;;;1.00;0.90;;;11.50;89.80;;;;;;4952560;28;20451;-47
2021/12/28 12:41:53;;;;;;;1.07;0.93;;;11.50;89.80;;;;;;4954196;28;20457;-47
2021/12/28 12:44:23;;;;;;;1.73;1.37;;;11.50;89.80;;;;;;4969553;28;20462;-47
2021/12/28 12:46:52;;;;;;;1.50;1.40;;;11.60;89.80;;;;;;4969680;28;20534;-47
2021/12/28 12:49:26;;;;;;;1.40;1.30;;;11.60;89.80;;;;;;4946691;28;20490;-47
2021/12/28 12:51:55;;;;;;;2.60;1.20;;;11.50;89.80;;;;;;4957230;28;20459;-47
2021/12/28 12:54:42;;;;;;;1.27;1.20;;;11.50;89.80;;;;;;4959837;28;20663;-47
2021/12/28 12:57:10;;;;;;;1.60;1.50;;;11.50;89.80;;;;;;4948364;28;20504;-47
2021/12/28 12:59:44;;;;;;;1.20;1.20;;;11.50;89.80;;;;;;4951837;28;20467;-46
2021/12/28 13:02:20;;;;;;;1.40;1.30;;;11.50;89.80;;;;;;4949492;28;20474;-47
2021/12/28 13:04:50;;;;;;;1.30;1.30;;;11.50;89.80;;;;;;4958041;28;20578;-47
2021/12/28 13:07:21;;;;;;;1.77;1.67;;;11.50;89.80;;;;;;4966271;28;20455;-47